createdAt,value
2019-05-23T00:00:41.280Z,7.53
2019-05-23T00:03:25.814Z,7.43
2019-05-23T00:12:43.813Z,7.52
2019-05-23T00:18:49.597Z,7.47
2019-05-23T00:21:39.436Z,7.52
2019-05-23T00:24:30.805Z,7.48
2019-05-23T00:27:22.094Z,7.44
2019-05-23T00:33:03.811Z,7.31
2019-05-23T00:35:48.823Z,7.28
2019-05-23T00:38:38.671Z,7.22
2019-05-23T00:41:29.669Z,7.23
2019-05-23T00:44:00.576Z,7.23
2019-05-23T00:46:31.520Z,7.15
2019-05-23T00:49:22.212Z,7.16
2019-05-23T00:52:12.602Z,7.18
2019-05-23T00:55:03.131Z,7.13
2019-05-23T00:57:52.704Z,6.15
2019-05-23T01:03:53.186Z,7.00
2019-05-23T01:06:42.950Z,6.95
2019-05-23T01:09:26.253Z,6.05
2019-05-23T01:14:40.190Z,6.80
2019-05-23T01:17:30.598Z,6.76
2019-05-23T01:26:34.919Z,6.74
2019-05-23T01:29:24.732Z,6.69
2019-05-23T01:32:33.067Z,6.66
2019-05-23T01:41:28.430Z,6.64
2019-05-23T01:56:19.416Z,6.62
2019-05-23T01:59:08.939Z,6.63
2019-05-23T02:07:53.294Z,6.44
2019-05-23T02:13:45.789Z,6.29
2019-05-23T02:16:27.614Z,6.26
2019-05-23T02:18:58.607Z,6.19
2019-05-23T02:21:49.708Z,6.15
2019-05-23T02:24:39.415Z,6.17
2019-05-23T02:27:29.775Z,6.14
2019-05-23T02:30:39.546Z,6.15
2019-05-23T02:33:29.391Z,6.07
2019-05-23T02:42:05.135Z,5.91
2019-05-23T02:44:54.864Z,5.87
2019-05-23T02:50:47.790Z,5.95
2019-05-23T02:53:39.374Z,5.07
2019-05-23T02:56:31.238Z,5.98
2019-05-23T02:59:24.177Z,5.94
2019-05-23T03:02:34.245Z,5.99
2019-05-23T03:05:07.054Z,6.05
2019-05-23T03:07:58.568Z,5.99
2019-05-23T03:11:08.409Z,5.97
2019-05-23T03:14:18.731Z,5.93
2019-05-23T03:17:13.144Z,5.97
2019-05-23T03:20:23.225Z,5.98
2019-05-23T03:23:33.222Z,5.93
2019-05-23T03:26:42.343Z,5.92
2019-05-23T03:29:33.731Z,5.91
2019-05-23T03:35:37.492Z,5.94
2019-05-23T03:38:28.144Z,5.95
2019-05-23T03:41:18.819Z,5.96
2019-05-23T03:44:09.050Z,5.96
2019-05-23T03:46:58.769Z,5.99
2019-05-23T03:49:49.453Z,5.98
2019-05-23T03:52:39.770Z,5.97
2019-05-23T03:55:31.227Z,5.94
2019-05-23T03:58:21.363Z,5.16
2019-05-23T04:01:47.043Z,6.03
2019-05-23T04:07:51.609Z,6.14
2019-05-23T04:10:41.328Z,6.18
2019-05-23T04:13:23.832Z,6.17
2019-05-23T04:16:06.728Z,6.19
2019-05-23T04:18:47.557Z,6.23
2019-05-23T04:21:37.287Z,6.27
2019-05-23T04:24:27.370Z,6.34
2019-05-23T04:27:16.919Z,6.41
2019-05-23T04:30:07.676Z,6.46
2019-05-23T04:32:38.722Z,6.53
2019-05-23T04:35:28.698Z,6.58
2019-05-23T04:38:18.615Z,6.61
2019-05-23T04:41:08.271Z,6.64
2019-05-23T04:43:58.493Z,6.69
2019-05-23T04:47:08.267Z,6.70
2019-05-23T04:49:57.859Z,6.79
2019-05-23T04:52:47.612Z,6.88
2019-05-23T04:55:57.508Z,6.96
2019-05-23T04:58:31.478Z,7.01
2019-05-23T05:01:21.734Z,7.11
2019-05-23T05:04:11.130Z,7.20
2019-05-23T05:07:00.869Z,7.33
2019-05-23T05:09:50.366Z,7.44
2019-05-23T05:12:40.071Z,7.53
2019-05-23T05:15:22.279Z,7.61
2019-05-23T05:18:04.510Z,7.75
2019-05-23T05:20:46.887Z,7.84
2019-05-23T05:23:17.704Z,7.96
2019-05-23T05:26:08.991Z,8.02
2019-05-23T05:28:39.754Z,8.12
2019-05-23T05:31:29.467Z,8.27
2019-05-23T05:34:18.994Z,8.38
2019-05-23T05:36:50.044Z,8.52
2019-05-23T05:39:39.542Z,8.67
2019-05-23T05:42:30.488Z,8.79
2019-05-23T05:45:20.307Z,8.93
2019-05-23T05:47:50.961Z,9.08
2019-05-23T05:50:25.774Z,9.23
2019-05-23T05:52:57.615Z,9.35
2019-05-23T05:55:47.655Z,9.50
2019-05-23T05:58:39.111Z,9.59
2019-05-23T06:01:14.294Z,9.71
2019-05-23T06:04:04.505Z,9.91
2019-05-23T06:06:52.256Z,10.05
2019-05-23T06:12:05.107Z,10.36
2019-05-23T06:14:38.504Z,10.53
2019-05-23T06:19:47.527Z,10.86
2019-05-23T06:22:19.354Z,10.97
2019-05-23T06:24:54.559Z,11.12
2019-05-23T06:27:42.489Z,11.24
2019-05-23T06:33:23.415Z,11.50
2019-05-23T06:35:50.499Z,11.64
2019-05-23T06:38:22.489Z,11.79
2019-05-23T06:40:57.098Z,11.90
2019-05-23T06:43:28.137Z,12.02
2019-05-23T06:45:59.066Z,12.22
2019-05-23T06:48:29.933Z,12.35
2019-05-23T06:51:00.507Z,12.50
2019-05-23T06:53:50.524Z,12.62
2019-05-23T06:56:21.496Z,12.01
2019-05-23T06:58:53.839Z,12.91
2019-05-23T07:01:25.514Z,13.04
2019-05-23T07:03:56.327Z,13.17
2019-05-23T07:06:29.211Z,13.25
2019-05-23T07:09:00.303Z,13.36
2019-05-23T07:11:31.197Z,13.47
2019-05-23T07:14:20.915Z,13.58
2019-05-23T07:16:51.604Z,13.74
2019-05-23T07:19:23.257Z,13.89
2019-05-23T07:21:55.494Z,14.04
2019-05-23T07:24:26.748Z,14.26
2019-05-23T07:27:17.468Z,14.51
2019-05-23T07:29:49.909Z,14.67
2019-05-23T07:32:20.856Z,14.82
2019-05-23T07:34:52.673Z,14.93
2019-05-23T07:37:23.389Z,15.10
2019-05-23T07:39:55.497Z,15.15
2019-05-23T07:42:26.368Z,15.28
2019-05-23T07:44:59.972Z,15.36
2019-05-23T07:47:30.629Z,15.40
2019-05-23T07:50:01.726Z,15.51
2019-05-23T07:52:34.190Z,15.65
2019-05-23T07:58:01.031Z,15.97
2019-05-23T08:03:47.777Z,16.29
2019-05-23T08:06:18.733Z,16.48
2019-05-23T08:09:09.978Z,16.58
2019-05-23T08:12:00.881Z,16.74
2019-05-23T08:14:32.262Z,16.94
2019-05-23T08:19:56.174Z,17.27
2019-05-23T08:22:27.094Z,17.39
2019-05-23T08:25:21.196Z,17.69
2019-05-23T08:28:01.543Z,17.96
2019-05-23T08:31:11.442Z,18.00
2019-05-23T08:33:48.450Z,18.44
2019-05-23T08:39:33.116Z,19.69
2019-05-23T08:42:15.825Z,20.04
2019-05-23T08:45:30.334Z,20.58
2019-05-23T08:48:31.964Z,21.04
2019-05-23T08:54:35.296Z,22.08
2019-05-23T09:00:16.784Z,21.59
2019-05-23T09:09:30.555Z,22.39
2019-05-23T09:12:16.425Z,22.66
2019-05-23T09:15:12.332Z,23.09
2019-05-23T09:18:27.482Z,22.91
2019-05-23T09:30:28.347Z,24.14
2019-05-23T09:43:47.756Z,25.61
2019-05-23T09:46:46.111Z,25.66
2019-05-23T09:53:00.620Z,22.94
2019-05-23T09:55:31.245Z,23.97
2019-05-23T09:58:41.829Z,24.36
2019-05-23T10:02:08.138Z,25.11
2019-05-23T10:05:18.476Z,25.31
2019-05-23T10:18:10.223Z,26.48
2019-05-23T10:23:54.731Z,25.45
2019-05-23T10:27:11.478Z,23.82
2019-05-23T10:30:25.399Z,24.63
2019-05-23T10:33:24.992Z,24.23
2019-05-23T10:51:01.434Z,22.07
2019-05-23T10:54:12.061Z,21.91
2019-05-23T10:56:24.387Z,22.06
2019-05-23T11:14:58.438Z,22.24
2019-05-23T11:17:33.976Z,22.65
2019-05-23T11:20:05.558Z,22.68
2019-05-23T11:22:57.019Z,22.41
2019-05-23T11:25:29.076Z,22.28
2019-05-23T11:28:00.856Z,22.18
2019-05-23T11:33:45.000Z,22.25
2019-05-23T11:36:36.840Z,22.03
2019-05-23T11:39:28.247Z,21.26
2019-05-23T11:42:19.736Z,23.80
2019-05-23T11:45:10.197Z,25.02
2019-05-23T11:48:00.801Z,25.07
2019-05-23T11:50:50.537Z,23.40
2019-05-23T11:53:23.886Z,22.64
2019-05-23T11:59:31.773Z,22.46
2019-05-23T12:02:30.506Z,22.11
2019-05-23T12:05:25.190Z,21.74
2019-05-23T12:11:17.973Z,21.94
2019-05-23T12:14:00.339Z,21.58
2019-05-23T12:16:42.009Z,22.50
2019-05-23T12:19:13.034Z,22.65
2019-05-23T12:22:02.599Z,22.43
2019-05-23T12:24:44.182Z,22.49
2019-05-23T12:27:17.785Z,22.55
2019-05-23T12:30:12.470Z,22.38
2019-05-23T12:33:02.203Z,22.55
2019-05-23T12:35:51.802Z,22.34
2019-05-23T12:38:41.380Z,22.65
2019-05-23T12:41:33.230Z,22.18
2019-05-23T12:44:22.930Z,21.42
2019-05-23T12:46:53.926Z,21.76
2019-05-23T12:49:43.297Z,22.97
2019-05-23T12:55:30.234Z,24.69
2019-05-23T12:58:00.773Z,25.14
2019-05-23T13:07:02.791Z,27.44
2019-05-23T13:09:52.371Z,28.98
2019-05-23T13:12:24.140Z,27.49
2019-05-23T13:15:14.834Z,27.88
2019-05-23T13:18:07.110Z,29.65
2019-05-23T13:20:38.233Z,30.64
2019-05-23T13:23:27.970Z,31.17
2019-05-23T13:26:08.721Z,31.60
2019-05-23T13:29:18.412Z,31.88
2019-05-23T13:32:08.369Z,32.53
2019-05-23T13:34:57.862Z,32.71
2019-05-23T13:37:53.484Z,33.61
2019-05-23T13:40:20.459Z,33.66
2019-05-23T13:42:51.516Z,33.20
2019-05-23T13:45:22.300Z,33.42
2019-05-23T13:47:53.032Z,34.29
2019-05-23T13:50:43.077Z,34.04
2019-05-23T13:53:33.919Z,34.06
2019-05-23T13:56:24.198Z,34.05
2019-05-23T13:58:56.837Z,33.19
2019-05-23T14:01:49.300Z,33.51
2019-05-23T14:04:22.129Z,33.20
2019-05-23T14:06:55.167Z,32.87
2019-05-23T14:09:26.871Z,32.99
2019-05-23T14:12:20.551Z,32.36
2019-05-23T14:20:29.026Z,33.51
2019-05-23T14:25:42.391Z,33.71
2019-05-23T14:28:13.285Z,33.06
2019-05-23T14:31:22.091Z,33.33
2019-05-23T14:34:11.833Z,33.19
2019-05-23T14:40:04.753Z,31.78
2019-05-23T14:42:53.189Z,32.26
2019-05-23T14:45:44.372Z,31.81
2019-05-23T14:51:36.297Z,29.80
2019-05-23T14:57:40.972Z,30.77
2019-05-23T15:00:31.277Z,31.63
2019-05-23T15:03:02.272Z,31.92
2019-05-23T15:05:34.387Z,31.97
2019-05-23T15:08:05.311Z,31.59
2019-05-23T15:10:36.053Z,32.90
2019-05-23T15:13:07.634Z,32.33
2019-05-23T15:15:38.555Z,31.49
2019-05-23T15:18:11.232Z,32.01
2019-05-23T15:20:42.173Z,32.73
2019-05-23T15:23:13.254Z,32.28
2019-05-23T15:25:44.167Z,32.49
2019-05-23T15:28:36.596Z,32.20
2019-05-23T15:31:07.935Z,31.76
2019-05-23T15:33:39.549Z,31.23
2019-05-23T15:36:11.154Z,31.53
2019-05-23T15:38:42.946Z,31.74
2019-05-23T15:41:13.936Z,31.41
2019-05-23T15:43:46.145Z,30.58
2019-05-23T15:46:17.309Z,29.38
2019-05-23T15:49:28.792Z,27.30
2019-05-23T15:52:46.123Z,25.72
2019-05-23T15:55:55.199Z,24.71
2019-05-23T15:58:52.815Z,24.21
2019-05-23T16:01:32.638Z,23.84
2019-05-23T16:04:22.571Z,23.78
2019-05-23T16:06:54.938Z,23.73
2019-05-23T16:09:46.004Z,23.46
2019-05-23T16:12:20.164Z,23.24
2019-05-23T16:14:51.275Z,22.85
2019-05-23T16:17:22.247Z,22.89
2019-05-23T16:20:12.126Z,22.79
2019-05-23T16:22:42.723Z,22.57
2019-05-23T16:25:18.291Z,22.64
2019-05-23T16:27:49.008Z,22.61
2019-05-23T16:30:21.390Z,22.27
2019-05-23T16:32:52.111Z,22.34
2019-05-23T16:35:23.650Z,22.29
2019-05-23T16:37:55.085Z,22.30
2019-05-23T16:40:27.138Z,22.32
2019-05-23T16:43:17.171Z,22.06
2019-05-23T16:46:15.795Z,22.05
2019-05-23T16:48:50.424Z,22.02
2019-05-23T16:51:21.534Z,21.81
2019-05-23T16:54:13.048Z,21.51
2019-05-23T17:02:37.787Z,21.15
2019-05-23T17:05:28.074Z,21.00
2019-05-23T17:08:37.091Z,20.91
2019-05-23T17:11:47.538Z,20.70
2019-05-23T17:14:28.678Z,20.54
2019-05-23T17:23:15.701Z,19.98
2019-05-23T17:26:24.472Z,20.00
2019-05-23T17:29:32.996Z,19.88
2019-05-23T17:32:27.287Z,19.76
2019-05-23T17:34:58.679Z,19.61
2019-05-23T17:37:32.964Z,19.51
2019-05-23T17:40:25.949Z,19.42
2019-05-23T17:42:56.646Z,19.34
2019-05-23T17:45:47.408Z,19.24
2019-05-23T17:48:19.795Z,19.21
2019-05-23T17:51:09.567Z,19.25
2019-05-23T17:53:40.340Z,19.20
2019-05-23T17:56:11.360Z,19.06
2019-05-23T17:58:43.094Z,19.01
2019-05-23T18:01:38.359Z,18.91
2019-05-23T18:04:31.731Z,18.99
2019-05-23T18:10:16.568Z,18.74
2019-05-23T18:12:48.404Z,18.67
2019-05-23T18:15:38.496Z,18.60
2019-05-23T18:24:43.479Z,18.51
2019-05-23T18:27:15.135Z,18.38
2019-05-23T18:35:55.559Z,18.08
2019-05-23T18:38:51.585Z,17.96
2019-05-23T18:41:23.177Z,17.14
2019-05-23T18:44:16.503Z,17.77
2019-05-23T18:53:47.859Z,17.62
2019-05-23T18:57:17.072Z,17.60
2019-05-23T19:06:04.459Z,17.12
2019-05-23T19:08:55.946Z,17.12
2019-05-23T19:11:46.766Z,16.87
2019-05-23T19:14:48.166Z,16.65
2019-05-23T19:17:55.098Z,16.44
2019-05-23T19:20:48.646Z,16.20
2019-05-23T19:23:21.395Z,16.07
2019-05-23T19:25:53.814Z,15.88
2019-05-23T19:28:45.782Z,15.69
2019-05-23T19:31:18.361Z,15.56
2019-05-23T19:34:08.515Z,15.44
2019-05-23T19:37:18.807Z,15.36
2019-05-23T19:42:56.343Z,15.07
2019-05-23T19:45:27.641Z,14.94
2019-05-23T19:48:17.603Z,14.81
2019-05-23T20:00:49.370Z,14.29
2019-05-23T20:03:23.937Z,14.21
2019-05-23T20:06:25.079Z,14.10
2019-05-23T20:13:19.036Z,13.94
2019-05-23T20:30:43.994Z,12.56
2019-05-23T20:33:15.402Z,13.30
2019-05-23T20:35:48.620Z,13.21
2019-05-23T20:38:41.731Z,13.15
2019-05-23T20:41:34.878Z,13.13
2019-05-23T20:44:24.696Z,13.06
2019-05-23T20:46:56.962Z,12.94
2019-05-23T20:52:48.818Z,12.86
2019-05-23T20:55:31.293Z,12.85
2019-05-23T20:58:24.828Z,12.80
2019-05-23T21:01:16.619Z,12.71
2019-05-23T21:03:50.194Z,12.69
2019-05-23T21:09:31.535Z,12.58
2019-05-23T21:12:06.390Z,12.51
2019-05-23T21:14:43.174Z,12.45
2019-05-23T21:17:17.423Z,12.39
2019-05-23T21:19:48.631Z,12.30
2019-05-23T21:22:38.702Z,12.29
2019-05-23T21:25:28.412Z,12.22
2019-05-23T21:28:19.813Z,12.23
2019-05-23T21:34:26.044Z,12.02
2019-05-23T21:36:57.142Z,11.17
2019-05-23T21:39:36.243Z,11.91
2019-05-23T21:42:46.658Z,11.95
2019-05-23T21:45:10.331Z,11.86
2019-05-23T21:47:44.346Z,11.80
2019-05-23T21:50:16.813Z,11.76
2019-05-23T21:52:48.780Z,11.75
2019-05-23T21:55:40.995Z,11.76
2019-05-23T21:58:30.877Z,11.67
2019-05-23T22:01:40.297Z,11.60
2019-05-23T22:04:16.998Z,11.59
2019-05-23T22:07:07.210Z,11.54
2019-05-23T22:09:56.870Z,11.48
2019-05-23T22:12:32.791Z,11.37
2019-05-23T22:17:41.408Z,11.30
2019-05-23T22:20:31.553Z,11.22
2019-05-23T22:23:21.294Z,11.11
2019-05-23T22:25:52.059Z,11.08
2019-05-23T22:28:42.409Z,11.02
2019-05-23T22:31:14.483Z,10.94
2019-05-23T22:36:59.191Z,10.92
2019-05-23T22:39:37.506Z,10.83
2019-05-23T22:42:28.707Z,10.78
2019-05-23T22:45:00.500Z,10.76
2019-05-23T22:47:32.198Z,10.74
2019-05-23T22:50:22.209Z,10.68
2019-05-23T22:53:11.731Z,10.69
2019-05-23T22:56:01.589Z,10.71
2019-05-23T22:58:51.378Z,10.69
2019-05-23T23:01:41.223Z,10.63
2019-05-23T23:06:55.377Z,10.54
2019-05-23T23:09:26.231Z,10.49
2019-05-23T23:11:57.096Z,10.46
2019-05-23T23:14:27.941Z,10.41
2019-05-23T23:16:59.002Z,10.37
2019-05-23T23:19:29.666Z,10.32
2019-05-23T23:22:20.983Z,10.29
2019-05-23T23:25:18.691Z,10.25
2019-05-23T23:29:46.740Z,10.22
2019-05-23T23:35:12.821Z,10.13
2019-05-23T23:37:54.478Z,10.08
2019-05-23T23:41:24.011Z,10.04
2019-05-23T23:47:29.171Z,9.98
2019-05-23T23:51:02.289Z,9.94
2019-05-23T23:54:10.371Z,9.88
